Time;durP1;ratioP1;P1;durP2;ratioP2;P2;SDS_P1;SDS_P2;PMS_P1;PMS_P2;Temp;Humidity;BMP_temperature;BMP_pressure;BME280_temperature;BME280_humidity;BME280_pressure;Samples;Min_cycle;Max_cycle;Signal;HPM_P1;HPM_P2
2022/01/18 00:27:37;;;;;;;2.60;1.40;;;;;;;-1.01;100.00;97747.44;1533972;81;981924;-66
2022/01/18 00:35:32;;;;;;;3.45;1.82;;;;;;;-1.01;83.14;97747.44;1468388;82;985029;-66
2022/01/18 00:38:32;;;;;;;3.37;0.90;;;;;;;-151.21;100.00;122539.50;1507334;80;984666;-66
2022/01/18 00:40:58;;;;;;;3.00;1.50;;;;;;;-1.01;100.00;157544.80;1684524;80;974958;-67
2022/01/18 00:43:25;;;;;;;3.00;1.02;;;;;;;-1.01;100.00;97747.44;1741974;80;20968;-67
2022/01/18 00:45:52;;;;;;;3.87;1.12;;;;;;;-0.83;100.00;97843.25;1729495;80;20912;-66
2022/01/18 00:48:19;;;;;;;4.17;1.20;;;;;;;-0.52;100.00;97864.59;1747484;80;20982;-68
2022/01/18 00:50:45;;;;;;;1.92;1.07;;;;;;;3.78;100.00;97846.09;1742150;81;21126;-68
2022/01/18 00:53:16;;;;;;;3.65;1.80;;;;;;;9.29;100.00;97835.28;1717769;82;21023;-68
2022/01/18 00:56:40;;;;;;;2.25;1.30;;;;;;;17.75;100.00;97905.03;1721545;80;575218;-66
2022/01/18 00:59:07;;;;;;;3.02;1.82;;;;;;;17.75;100.00;97905.03;1515699;81;984775;-67
2022/01/18 01:01:37;;;;;;;3.27;1.60;;;;;;;25.88;100.00;97889.87;1583522;81;974656;-69
2022/01/18 01:04:05;;;;;;;3.27;1.50;;;;;;;25.88;100.00;97889.87;1586797;82;973812;-66
2022/01/18 01:06:34;;;;;;;2.55;1.60;;;;;;;15.31;100.00;97951.98;1662223;81;738888;-67
2022/01/18 01:09:06;;;;;;;7.05;1.60;;;;;;;15.31;100.00;97951.98;1605477;81;984071;-65
2022/01/18 01:11:37;;;;;;;5.97;2.00;;;;;;;15.31;100.00;97951.98;1693943;80;932125;-69
2022/01/18 01:14:05;;;;;;;9.53;2.30;;;;;;;-151.21;100.00;122539.50;1651166;81;984722;-66
2022/01/18 01:33:19;;;;;;;3.92;1.90;;;;;;;-2.33;100.00;97702.33;1715344;81;21185;-66
2022/01/18 01:43:30;;;;;;;3.37;1.90;;;;;;;-2.54;100.00;97738.60;1727013;80;21051;-68
2022/01/18 01:45:55;;;;;;;3.50;1.60;;;;;;;-2.60;100.00;97750.76;1745706;80;21464;-67
2022/01/18 01:48:23;;;;;;;12.28;1.80;;;;;;;-2.64;100.00;97739.42;1730441;81;21181;-67
2022/01/18 01:51:11;;;;;;;9.75;1.05;;;;;;;-2.69;100.00;97753.22;1733471;81;21075;-67
2022/01/18 01:53:27;;;;;;;4.45;1.12;;;;;;;-2.73;100.00;97763.48;1691694;82;21497;-68
2022/01/18 01:55:53;;;;;;;2.80;1.40;;;;;;;-2.68;100.00;97759.42;1709227;82;21056;-67
2022/01/18 01:58:23;;;;;;;3.40;1.47;;;;;;;-2.70;100.00;97775.07;1664226;82;21181;-66
2022/01/18 02:00:53;;;;;;;3.47;1.05;;;;;;;-2.76;100.00;97782.36;1704269;82;21134;-65
2022/01/18 02:03:19;;;;;;;4.35;1.40;;;;;;;-2.82;100.00;97787.51;1697744;82;21095;-67
2022/01/18 02:05:46;;;;;;;7.08;1.35;;;;;;;-2.88;100.00;97889.16;1711815;82;21546;-66
2022/01/18 02:08:15;;;;;;;2.67;1.32;;;;;;;-2.92;100.00;97896.72;1741791;80;21027;-65
2022/01/18 02:10:43;;;;;;;18.80;1.72;;;;;;;-2.99;100.00;97929.34;1734612;80;21101;-65
2022/01/18 02:13:13;;;;;;;3.12;1.22;;;;;;;-3.06;100.00;97907.52;1718186;80;21835;-69
2022/01/18 02:15:58;;;;;;;3.30;1.50;;;;;;;-3.12;100.00;97936.08;1725360;81;21070;-67
2022/01/18 02:23:41;;;;;;;3.90;1.65;;;;;;;-3.18;100.00;97952.25;1690229;81;21055;-67
2022/01/18 02:26:10;;;;;;;4.50;1.70;;;;;;;-3.18;100.00;97943.34;1680017;83;21037;-67
2022/01/18 02:28:39;;;;;;;3.00;1.22;;;;;;;-3.27;100.00;97953.84;1722437;81;21019;-65
2022/01/18 02:31:10;;;;;;;4.60;1.35;;;;;;;-3.27;100.00;97959.75;1722362;80;21012;-67
2022/01/18 02:33:37;;;;;;;2.60;1.35;;;;;;;-3.26;100.00;97944.69;1726333;80;21511;-67
2022/01/18 02:36:08;;;;;;;2.12;1.15;;;;;;;-3.22;100.00;97939.55;1720833;81;21110;-67
2022/01/18 02:38:34;;;;;;;7.22;1.77;;;;;;;-3.23;100.00;97955.46;1734995;80;21127;-66
2022/01/18 02:41:02;;;;;;;35.75;2.85;;;;;;;-3.29;100.00;97966.76;1724362;81;20993;-65
2022/01/18 02:43:46;;;;;;;9.63;2.10;;;;;;;-3.46;100.00;97988.53;1736083;80;21071;-67
2022/01/18 02:46:13;;;;;;;8.15;1.70;;;;;;;-3.67;100.00;97993.32;1704041;82;21081;-65
2022/01/18 02:48:40;;;;;;;6.80;1.77;;;;;;;-3.80;100.00;98003.23;1735986;81;21541;-66
2022/01/18 02:51:11;;;;;;;9.48;2.70;;;;;;;-3.85;100.00;97976.28;1745661;80;21082;-66
2022/01/18 02:54:05;;;;;;;18.62;3.65;;;;;;;-3.87;100.00;97998.64;1722437;81;21616;-65
2022/01/18 02:56:49;;;;;;;13.85;2.62;;;;;;;-3.92;100.00;98011.52;1741935;80;29157;-65
2022/01/18 02:59:34;;;;;;;9.80;2.80;;;;;;;-4.08;100.00;98014.15;1705874;80;21578;-66
2022/01/18 03:04:49;;;;;;;7.30;2.50;;;;;;;-4.22;100.00;98001.69;1686334;81;21190;-66
2022/01/18 03:07:17;;;;;;;5.25;2.35;;;;;;;-4.21;100.00;98011.36;1714074;81;21055;-66
2022/01/18 03:09:44;;;;;;;5.70;2.25;;;;;;;-4.19;100.00;98015.95;1731268;81;21064;-68
2022/01/18 03:12:11;;;;;;;9.13;1.82;;;;;;;-4.20;100.00;98021.08;1745942;80;21221;-66
2022/01/18 03:14:38;;;;;;;7.42;2.17;;;;;;;-4.20;100.00;98018.91;1721424;82;21146;-67
2022/01/18 03:17:05;;;;;;;4.85;2.02;;;;;;;-4.19;100.00;98040.70;1719536;81;21512;-65
2022/01/18 03:19:32;;;;;;;3.75;2.30;;;;;;;-4.20;100.00;98051.20;1734887;80;21023;-66
2022/01/18 03:22:00;;;;;;;4.22;1.70;;;;;;;-4.18;100.00;98072.73;1721023;81;20976;-66
2022/01/18 03:29:42;;;;;;;1.47;1.05;;;;;;;-4.18;100.00;98061.96;1735867;81;21145;-65
2022/01/18 03:32:10;;;;;;;4.30;1.35;;;;;;;-4.23;100.00;98091.52;1725665;80;21054;-66
2022/01/18 03:34:38;;;;;;;4.40;1.10;;;;;;;-4.26;100.00;98089.34;1737071;80;21016;-67
2022/01/18 03:37:06;;;;;;;2.83;1.22;;;;;;;-4.30;100.00;98119.98;1702335;82;21503;-68
2022/01/18 03:39:34;;;;;;;4.58;1.40;;;;;;;-4.35;100.00;98111.08;1740727;80;20986;-67
2022/01/18 03:42:45;;;;;;;;;;;;;;;;;;;;;
2022/01/18 03:44:45;;;;;;;4.15;1.02;;;;;;;-4.52;100.00;98110.67;1722046;80;21497;-67
2022/01/18 03:47:14;;;;;;;1.55;0.72;;;;;;;-4.55;100.00;98113.84;1740874;80;21515;-68
2022/01/18 03:49:41;;;;;;;5.90;1.12;;;;;;;-4.59;100.00;98114.89;1734834;81;21172;-67
2022/01/18 03:52:07;;;;;;;2.87;0.90;;;;;;;-4.59;100.00;98128.33;1739300;79;21420;-66
2022/01/18 03:54:41;;;;;;;2.77;1.22;;;;;;;-4.57;100.00;98127.55;1736615;80;21921;-68
2022/01/18 03:57:03;;;;;;;1.95;0.90;;;;;;;-4.55;100.00;98146.94;1735961;80;21504;-67
2022/01/18 03:59:29;;;;;;;2.80;1.05;;;;;;;-4.56;100.00;98170.88;1722700;80;21678;-67
2022/01/18 04:01:59;;;;;;;3.20;1.32;;;;;;;-4.53;100.00;98154.75;1743452;80;21020;-68
2022/01/18 04:04:27;;;;;;;2.20;1.30;;;;;;;-4.53;100.00;98178.95;1725029;81;21131;-66
2022/01/18 04:06:57;;;;;;;4.42;1.67;;;;;;;-4.49;100.00;98190.02;1746645;80;21130;-67
2022/01/18 04:09:23;;;;;;;3.65;1.62;;;;;;;-4.48;100.00;98195.14;1739434;80;21153;-66
2022/01/18 04:11:49;;;;;;;3.80;1.07;;;;;;;-4.47;100.00;98199.45;1738431;80;21190;-67
2022/01/18 04:14:18;;;;;;;3.08;1.10;;;;;;;-4.46;100.00;98201.61;1704773;80;21226;-68
2022/01/18 04:17:00;;;;;;;2.20;1.20;;;;;;;-4.46;100.00;98202.95;1725368;80;21587;-64
2022/01/18 04:25:50;;;;;;;3.95;1.32;;;;;;;-4.47;100.00;98203.48;1757950;80;21150;-64
2022/01/18 04:27:23;;;;;;;5.40;1.47;;;;;;;-4.52;100.00;98220.38;1739011;80;21505;-65
2022/01/18 04:29:49;;;;;;;3.30;0.93;;;;;;;-4.53;100.00;98231.39;1742061;79;21083;-67
2022/01/18 04:32:16;;;;;;;2.25;1.20;;;;;;;-4.53;100.00;98230.05;1705479;81;21942;-66
2022/01/18 04:34:42;;;;;;;2.55;1.27;;;;;;;-4.50;100.00;98247.58;1709255;81;21511;-66
2022/01/18 04:37:09;;;;;;;5.72;2.45;;;;;;;-4.50;100.00;98256.44;1705338;82;21017;-65
2022/01/18 04:39:42;;;;;;;3.45;1.35;;;;;;;-4.49;100.00;98261.29;1731267;80;22147;-67
2022/01/18 04:42:12;;;;;;;3.35;1.05;;;;;;;-4.48;100.00;98263.73;1747893;79;21571;-67
2022/01/18 04:49:53;;;;;;;3.33;1.37;;;;;;;-4.48;100.00;98292.48;1711590;81;21524;-66
2022/01/18 04:52:22;;;;;;;5.25;1.20;;;;;;;-4.50;100.00;98305.40;1731549;79;22219;-67
2022/01/18 04:54:58;;;;;;;4.65;1.30;;;;;;;-4.52;100.00;98297.58;1719441;81;21027;-67
2022/01/18 04:59:44;;;;;;;3.30;1.00;;;;;;;-4.49;100.00;98326.66;1731019;81;21178;-68
2022/01/18 05:02:11;;;;;;;1.87;1.10;;;;;;;-4.50;100.00;98327.70;1683726;82;21268;-67
2022/01/18 05:04:37;;;;;;;2.77;1.02;;;;;;;-4.52;100.00;98317.20;1724701;81;21120;-67
2022/01/18 05:07:08;;;;;;;4.20;1.05;;;;;;;-4.55;100.00;98326.30;1703287;81;21583;-66
2022/01/18 05:09:32;;;;;;;2.58;1.17;;;;;;;-4.58;100.00;98322.77;1657105;82;21130;-68
2022/01/18 05:12:11;;;;;;;6.25;1.50;;;;;;;-4.60;100.00;98318.98;1739563;80;21062;-66
2022/01/18 05:14:35;;;;;;;3.35;1.30;;;;;;;-4.58;100.00;98318.20;1701637;82;21032;-65
2022/01/18 05:17:20;;;;;;;11.12;2.10;;;;;;;-4.58;100.00;98330.83;1676520;82;21576;-66
2022/01/18 05:24:33;;;;;;;3.22;1.12;;;;;;;-4.60;100.00;98347.73;1688749;83;21077;-67
2022/01/18 05:27:02;;;;;;;4.53;2.00;;;;;;;-4.59;100.00;98358.24;1716757;81;21020;-66
2022/01/18 05:29:32;;;;;;;2.37;1.47;;;;;;;-4.60;100.00;98361.19;1728362;80;21532;-66
2022/01/18 05:31:58;;;;;;;2.35;1.20;;;;;;;-4.58;100.00;98367.13;1693040;83;22107;-66
2022/01/18 05:34:25;;;;;;;4.08;1.70;;;;;;;-4.57;100.00;98362.06;1734323;81;21159;-66
2022/01/18 05:36:52;;;;;;;12.18;1.85;;;;;;;-4.58;100.00;98384.61;1720037;80;21117;-66
2022/01/18 05:39:22;;;;;;;2.75;1.47;;;;;;;-4.57;100.00;98383.57;1709674;81;21072;-66
2022/01/18 05:41:50;;;;;;;4.83;1.50;;;;;;;-4.56;100.00;98407.52;1706599;82;21187;-67
2022/01/18 05:44:18;;;;;;;10.28;2.27;;;;;;;-4.60;100.00;98393.45;1739993;80;21157;-66
2022/01/18 05:46:45;;;;;;;4.15;1.62;;;;;;;-4.59;100.00;98398.58;1732799;80;21910;-66
2022/01/18 05:49:12;;;;;;;5.70;1.80;;;;;;;-4.56;100.00;98415.59;1739458;79;21099;-65
2022/01/18 05:51:41;;;;;;;3.20;1.47;;;;;;;-4.54;100.00;98432.27;1724342;81;21031;-65
2022/01/18 05:54:09;;;;;;;2.52;1.57;;;;;;;-4.41;100.00;98433.81;1744937;80;21097;-66
2022/01/18 05:56:36;;;;;;;9.60;3.17;;;;;;;-4.47;100.00;98438.02;1735946;80;21082;-67
2022/01/18 05:59:06;;;;;;;13.55;5.95;;;;;;;-4.49;100.00;98430.20;1742620;79;21532;-67
2022/01/18 06:01:35;;;;;;;4.85;2.72;;;;;;;-4.46;100.00;98451.75;1754911;79;21055;-65
2022/01/18 06:06:51;;;;;;;4.53;1.60;;;;;;;-4.46;100.00;98462.50;1720814;81;21050;-67
2022/01/18 06:09:22;;;;;;;4.95;2.02;;;;;;;-4.47;100.00;98464.38;1726847;81;21521;-65
2022/01/18 06:11:48;;;;;;;5.28;1.75;;;;;;;-4.49;100.00;98461.14;1734519;81;21137;-65
2022/01/18 06:14:16;;;;;;;4.30;2.15;;;;;;;-4.48;100.00;98483.45;1688224;83;21035;-66
2022/01/18 06:16:44;;;;;;;3.87;1.20;;;;;;;-4.50;100.00;98485.05;1731644;81;21987;-67
2022/01/18 06:19:10;;;;;;;7.60;2.27;;;;;;;-4.52;100.00;98489.88;1740251;81;21109;-66
2022/01/18 06:21:38;;;;;;;4.42;1.82;;;;;;;-4.54;100.00;98488.75;1706070;82;21066;-67
2022/01/18 06:24:11;;;;;;;5.50;2.00;;;;;;;-4.53;100.00;98489.58;1706683;81;21524;-62
2022/01/18 06:26:39;;;;;;;10.87;2.47;;;;;;;-4.53;100.00;98498.98;1722621;81;21027;-68
2022/01/18 06:29:05;;;;;;;5.22;1.40;;;;;;;-4.54;100.00;98502.20;1742749;80;21050;-65
2022/01/18 06:31:33;;;;;;;3.70;1.70;;;;;;;-4.54;100.00;98502.75;1682007;82;21174;-66
2022/01/18 06:34:00;;;;;;;4.42;1.77;;;;;;;-4.51;100.00;98510.32;1685426;82;20992;-67
2022/01/18 06:36:28;;;;;;;4.20;1.98;;;;;;;-4.50;100.00;98517.31;1707351;82;21146;-65
2022/01/18 06:38:56;;;;;;;4.30;1.60;;;;;;;-4.48;100.00;98515.20;1708871;81;21037;-66
2022/01/18 06:41:22;;;;;;;4.53;1.87;;;;;;;-4.47;100.00;98519.52;1703012;81;21130;-64
2022/01/18 06:43:49;;;;;;;3.52;1.82;;;;;;;-4.45;100.00;98525.47;1708962;81;21536;-65
2022/01/18 06:46:18;;;;;;;6.53;1.95;;;;;;;-4.41;100.00;98532.00;1719520;82;21019;-64
2022/01/18 06:48:46;;;;;;;6.08;2.62;;;;;;;-4.39;100.00;98533.09;1749847;80;21133;-67
2022/01/18 06:51:14;;;;;;;2.70;1.65;;;;;;;-4.36;100.00;98553.30;1741928;80;21088;-67
2022/01/18 06:53:45;;;;;;;3.75;1.72;;;;;;;-4.35;100.00;98553.60;1732068;80;21138;-66
2022/01/18 06:56:13;;;;;;;3.22;1.65;;;;;;;-4.34;100.00;98552.01;1728143;80;21504;-65
2022/01/18 06:58:42;;;;;;;2.92;1.92;;;;;;;-4.33;100.00;98556.87;1706955;81;21095;-67
2022/01/18 07:01:12;;;;;;;5.62;1.50;;;;;;;-4.33;100.00;98555.52;1734923;81;21456;-66
2022/01/18 07:03:40;;;;;;;4.12;2.05;;;;;;;-4.33;100.00;98567.63;1715403;80;21616;-66
2022/01/18 07:06:09;;;;;;;7.97;2.02;;;;;;;-4.34;100.00;98571.36;1680214;82;21230;-67
2022/01/18 07:08:35;;;;;;;5.30;2.37;;;;;;;-4.34;100.00;98572.70;1701102;81;21070;-66
2022/01/18 07:11:03;;;;;;;6.08;2.30;;;;;;;-4.33;100.00;98585.12;1702486;81;21107;-67
2022/01/18 07:13:30;;;;;;;13.50;1.80;;;;;;;-4.32;100.00;98590.25;1727473;80;22418;-66
2022/01/18 07:15:56;;;;;;;4.45;2.20;;;;;;;-4.31;100.00;98586.48;1746578;80;21012;-65
2022/01/18 07:18:22;;;;;;;6.20;2.10;;;;;;;-4.31;100.00;98604.50;1721327;81;21197;-66
2022/01/18 07:20:50;;;;;;;3.80;1.57;;;;;;;-4.33;100.00;98596.67;1698818;82;21075;-69
2022/01/18 07:23:19;;;;;;;2.95;1.52;;;;;;;-4.31;100.00;98605.33;1685489;83;21505;-68
2022/01/18 07:25:47;;;;;;;2.62;1.52;;;;;;;-4.30;100.00;98608.29;1686947;83;21143;-64
2022/01/18 07:28:18;;;;;;;6.67;1.77;;;;;;;-4.29;100.00;98624.73;1715883;81;21122;-65
2022/01/18 07:30:47;;;;;;;4.58;1.65;;;;;;;-4.25;100.00;98629.63;1714182;80;21059;-67
2022/01/18 07:33:15;;;;;;;3.33;1.50;;;;;;;-4.23;100.00;98652.52;1705969;81;21619;-66
2022/01/18 07:35:41;;;;;;;3.02;1.47;;;;;;;-4.23;100.00;98651.73;1721925;81;21588;-65
2022/01/18 07:38:12;;;;;;;4.30;2.17;;;;;;;-4.24;100.00;98664.36;1729052;80;22069;-67
2022/01/18 07:40:37;;;;;;;6.90;1.95;;;;;;;-4.23;100.00;98673.26;1711558;82;21061;-67
2022/01/18 07:43:06;;;;;;;3.62;1.82;;;;;;;-4.20;100.00;98689.73;1744167;81;21004;-66
2022/01/18 07:45:36;;;;;;;3.75;1.67;;;;;;;-4.17;100.00;98689.77;1751749;80;21082;-66
2022/01/18 07:48:04;;;;;;;4.87;2.12;;;;;;;-4.15;100.00;98691.69;1742963;80;21519;-68
2022/01/18 07:50:30;;;;;;;6.20;2.27;;;;;;;-4.13;100.00;98688.75;1748714;79;21452;-67
2022/01/18 07:52:58;;;;;;;4.55;1.90;;;;;;;-4.12;100.00;98706.00;1757076;81;21018;-67
2022/01/18 07:55:27;;;;;;;10.75;3.62;;;;;;;-4.12;100.00;98718.11;1725372;80;21055;-66
2022/01/18 07:57:57;;;;;;;10.55;3.85;;;;;;;-4.13;100.00;98708.42;1721185;81;21548;-66
2022/01/18 08:00:24;;;;;;;12.95;3.62;;;;;;;-4.12;100.00;98706.52;1692950;83;21017;-69
2022/01/18 08:02:51;;;;;;;6.22;2.77;;;;;;;-4.09;100.00;98704.16;1700501;83;21139;-64
2022/01/18 08:05:20;;;;;;;28.07;3.92;;;;;;;-4.07;100.00;98720.89;1735654;80;21081;-69
2022/01/18 08:07:47;;;;;;;5.45;2.55;;;;;;;-4.05;100.00;98712.58;1728458;81;21004;-67
2022/01/18 08:10:19;;;;;;;7.65;2.27;;;;;;;-4.03;100.00;98717.19;1712648;81;21150;-67
2022/01/18 08:12:43;;;;;;;14.30;4.12;;;;;;;-3.98;100.00;98716.45;1723619;80;21146;-67
2022/01/18 08:15:19;;;;;;;4.00;2.20;;;;;;;-3.96;100.00;98737.22;1721828;80;21960;-67
2022/01/18 08:17:47;;;;;;;5.67;2.15;;;;;;;-3.90;100.00;98742.97;1718220;81;21036;-68
2022/01/18 08:20:14;;;;;;;4.42;2.50;;;;;;;-3.92;100.00;98739.17;1712914;80;21085;-66
2022/01/18 08:22:43;;;;;;;17.00;6.08;;;;;;;-3.94;100.00;98749.37;1696789;82;21047;-67
2022/01/18 08:25:10;;;;;;;28.67;8.10;;;;;;;-3.92;100.00;98767.45;1734999;80;21086;-67
2022/01/18 08:27:39;;;;;;;38.75;11.12;;;;;;;-3.84;100.00;98772.16;1725911;81;21148;-68
2022/01/18 08:30:08;;;;;;;68.72;19.40;;;;;;;-3.80;100.00;98782.71;1686545;83;21516;-66
2022/01/18 08:32:36;;;;;;;27.45;6.83;;;;;;;-3.71;100.00;98786.66;1705178;81;21123;-67
2022/01/18 08:35:05;;;;;;;64.42;18.17;;;;;;;-3.67;100.00;98803.14;1705241;82;21057;-67
2022/01/18 08:37:32;;;;;;;40.78;9.60;;;;;;;-3.63;100.00;98800.79;1709960;81;22047;-67
2022/01/18 08:39:59;;;;;;;63.83;17.95;;;;;;;-3.61;100.00;98827.75;1682527;83;21622;-68
2022/01/18 08:42:25;;;;;;;10.53;3.45;;;;;;;-3.63;100.00;98820.98;1728251;81;21164;-66
2022/01/18 08:44:52;;;;;;;15.00;5.75;;;;;;;-3.63;100.00;98846.58;1736681;80;21144;-66
2022/01/18 08:47:23;;;;;;;33.10;11.20;;;;;;;-3.65;100.00;98852.18;1691574;82;21495;-68
2022/01/18 08:49:50;;;;;;;18.05;6.15;;;;;;;-3.62;100.00;98865.19;1700562;82;21024;-66
2022/01/18 08:52:16;;;;;;;19.00;7.75;;;;;;;-3.56;100.00;98882.23;1725252;80;21117;-66
2022/01/18 08:54:43;;;;;;;12.63;4.03;;;;;;;-3.50;100.00;98864.30;1685246;82;21614;-66
2022/01/18 08:57:11;;;;;;;11.68;5.75;;;;;;;-3.48;100.00;98878.35;1700190;81;21095;-67
2022/01/18 08:59:40;;;;;;;16.48;7.30;;;;;;;-3.53;100.00;98880.41;1734860;79;21143;-65
2022/01/18 09:02:09;;;;;;;13.65;5.85;;;;;;;-3.59;100.00;98878.17;1687221;82;21084;-66
2022/01/18 09:04:36;;;;;;;5.90;2.27;;;;;;;-3.56;100.00;98899.23;1697540;81;21174;-69
2022/01/18 09:07:09;;;;;;;6.97;2.22;;;;;;;-3.59;100.00;98894.84;1672888;81;21198;-66
2022/01/18 09:09:41;;;;;;;5.30;2.52;;;;;;;-3.69;100.00;98910.30;1697968;81;21172;-67
2022/01/18 09:12:13;;;;;;;6.22;2.62;;;;;;;-3.76;100.00;98901.02;1710754;82;21646;-67
2022/01/18 09:14:41;;;;;;;6.65;2.50;;;;;;;-3.77;100.00;98915.52;1678724;82;21114;-67
2022/01/18 09:17:10;;;;;;;5.03;1.25;;;;;;;-3.73;100.00;98927.98;1682287;83;21224;-68
2022/01/18 09:19:39;;;;;;;7.40;1.77;;;;;;;-3.68;100.00;98932.95;1731752;80;21090;-65
2022/01/18 09:22:05;;;;;;;9.33;2.47;;;;;;;-3.59;100.00;98920.44;1740815;80;21442;-65
2022/01/18 09:24:32;;;;;;;6.75;3.02;;;;;;;-3.55;100.00;98921.05;1748819;80;21088;-67
2022/01/18 09:27:00;;;;;;;12.40;4.83;;;;;;;-3.52;100.00;98931.89;1741807;80;21181;-66
2022/01/18 09:29:27;;;;;;;10.28;4.58;;;;;;;-3.49;100.00;98938.14;1721325;81;21101;-67
2022/01/18 09:31:55;;;;;;;9.53;2.17;;;;;;;-3.48;100.00;98949.20;1740967;80;21052;-67
2022/01/18 09:34:23;;;;;;;13.93;3.90;;;;;;;-3.46;100.00;98944.39;1736927;80;21068;-67
2022/01/18 09:36:49;;;;;;;16.20;4.35;;;;;;;-3.45;100.00;98937.14;1727975;81;21052;-67
2022/01/18 09:39:17;;;;;;;3.58;1.50;;;;;;;-3.42;100.00;98933.44;1732913;80;21130;-65
2022/01/18 09:41:50;;;;;;;6.15;2.10;;;;;;;-3.42;100.00;98959.03;1742004;80;23318;-67
2022/01/18 09:44:15;;;;;;;6.33;2.27;;;;;;;-3.40;100.00;98943.14;1703881;81;21619;-67
2022/01/18 09:46:41;;;;;;;4.72;1.92;;;;;;;-3.34;100.00;98959.68;1745815;80;21110;-67
2022/01/18 09:49:09;;;;;;;4.80;2.30;;;;;;;-3.24;100.00;98956.37;1724929;80;20999;-65
2022/01/18 09:51:35;;;;;;;4.22;2.20;;;;;;;-3.20;100.00;98958.86;1696608;82;21175;-69
2022/01/18 09:54:02;;;;;;;4.55;2.12;;;;;;;-3.22;100.00;98961.80;1697490;82;21498;-66
2022/01/18 09:56:30;;;;;;;3.80;2.10;;;;;;;-3.25;100.00;98983.85;1698171;83;21222;-65
2022/01/18 09:58:57;;;;;;;7.62;2.50;;;;;;;-3.29;100.00;98966.52;1705890;82;21091;-65
2022/01/18 10:01:28;;;;;;;4.05;2.20;;;;;;;-3.27;100.00;98956.84;1690701;83;21045;-65
2022/01/18 10:04:22;;;;;;;4.40;2.17;;;;;;;-3.23;100.00;98979.56;1741905;81;21032;-67
2022/01/18 10:06:56;;;;;;;7.22;2.95;;;;;;;-3.28;100.00;98977.59;1700405;82;21186;-65
2022/01/18 10:09:25;;;;;;;5.90;2.00;;;;;;;-3.32;100.00;98985.34;1707988;80;21576;-69
2022/01/18 10:12:14;;;;;;;7.70;2.80;;;;;;;-3.28;100.00;98969.52;1744757;81;21385;-67
2022/01/18 10:14:44;;;;;;;7.90;3.22;;;;;;;-3.26;100.00;98984.92;1744738;81;21049;-68
2022/01/18 10:17:11;;;;;;;3.98;1.70;;;;;;;-3.18;100.00;98995.83;1728905;80;21052;-67
2022/01/18 10:19:49;;;;;;;4.55;1.90;;;;;;;-3.17;100.00;98996.11;1717336;80;21104;-68
2022/01/18 10:22:20;;;;;;;3.55;1.37;;;;;;;-3.20;100.00;99002.81;1732579;81;21107;-67
2022/01/18 10:24:48;;;;;;;5.03;2.52;;;;;;;-3.26;100.00;99002.96;1704979;81;21124;-67
2022/01/18 10:27:16;;;;;;;6.70;1.77;;;;;;;-3.30;100.00;99015.58;1726433;81;21056;-65
2022/01/18 10:29:48;;;;;;;3.12;1.50;;;;;;;-3.30;100.00;99041.18;1724941;81;21110;-68
2022/01/18 10:32:27;;;;;;;4.17;1.67;;;;;;;-3.25;100.00;99064.70;1732544;81;21190;-65
2022/01/18 10:35:04;;;;;;;5.37;1.77;;;;;;;-3.24;100.00;99041.28;1698492;81;21804;-66
2022/01/18 10:37:31;;;;;;;5.35;2.40;;;;;;;-3.22;100.00;99026.48;1702612;81;21099;-66
2022/01/18 10:40:16;;;;;;;6.20;1.37;;;;;;;-3.21;100.00;99040.80;1733111;80;20991;-66
2022/01/18 10:42:50;;;;;;;10.10;1.90;;;;;;;-3.23;100.00;99041.55;1748339;81;21005;-67
2022/01/18 10:45:31;;;;;;;7.10;1.42;;;;;;;-3.26;100.00;99033.44;1747279;81;21130;-67
2022/01/18 10:48:13;;;;;;;4.85;1.75;;;;;;;-3.25;100.00;99036.92;1727303;80;21925;-66
2022/01/18 10:50:44;;;;;;;2.02;1.40;;;;;;;-3.24;100.00;99039.93;1715677;81;21051;-66
2022/01/18 10:53:17;;;;;;;7.37;2.92;;;;;;;-3.23;100.00;99055.86;1741507;81;21520;-67
2022/01/18 10:55:47;;;;;;;4.87;2.58;;;;;;;-3.18;100.00;99047.87;1720236;81;21117;-64
2022/01/18 10:58:16;;;;;;;6.92;2.25;;;;;;;-3.15;100.00;99056.00;1719796;81;21118;-66
2022/01/18 11:00:44;;;;;;;4.78;1.92;;;;;;;-3.10;100.00;99060.14;1732071;80;21057;-67
2022/01/18 11:03:13;;;;;;;10.45;2.95;;;;;;;-3.10;100.00;99056.09;1704127;80;21569;-66
2022/01/18 11:05:43;;;;;;;7.20;2.72;;;;;;;-3.09;100.00;99051.53;1709738;81;21055;-67
2022/01/18 11:08:12;;;;;;;4.22;2.15;;;;;;;-3.08;100.00;99063.94;1687226;80;21112;-64
2022/01/18 11:10:41;;;;;;;4.12;2.02;;;;;;;-3.09;100.00;99067.16;1730523;81;21420;-65
2022/01/18 11:13:25;;;;;;;8.53;1.72;;;;;;;-3.13;100.00;99071.41;1731954;81;21022;-66
2022/01/18 11:15:42;;;;;;;5.22;1.72;;;;;;;-3.14;100.00;99094.05;1702907;81;21125;-66
2022/01/18 11:18:16;;;;;;;4.10;1.65;;;;;;;-3.14;100.00;99089.17;1724509;80;21036;-68
2022/01/18 11:20:42;;;;;;;7.30;1.72;;;;;;;-3.15;100.00;99081.61;1740537;80;21080;-68
2022/01/18 11:23:10;;;;;;;3.98;2.10;;;;;;;-3.14;100.00;99098.61;1711181;81;21177;-68
2022/01/18 11:25:38;;;;;;;4.70;1.05;;;;;;;-3.14;100.00;99098.61;1694581;81;21023;-69
2022/01/18 11:28:06;;;;;;;5.33;1.90;;;;;;;-3.14;100.00;99090.52;1719647;81;22573;-68
2022/01/18 11:30:39;;;;;;;4.62;1.75;;;;;;;-3.16;100.00;99093.45;1686259;82;21073;-66
2022/01/18 11:33:11;;;;;;;;;;;;;;;-3.12;100.00;99105.94;1735999;80;21009;-65
2022/01/18 11:36:01;;;;;;;3.02;1.55;;;;;;;-3.10;100.00;99116.75;1738258;80;21135;-68
2022/01/18 11:38:50;;;;;;;6.55;2.08;;;;;;;-3.09;100.00;99112.19;1737821;80;21098;-67
2022/01/18 11:41:34;;;;;;;4.72;2.30;;;;;;;-3.11;100.00;99123.73;1708605;81;21091;-64
2022/01/18 11:44:16;;;;;;;4.22;2.00;;;;;;;-3.11;100.00;99116.99;1746222;80;21583;-65
2022/01/18 11:46:52;;;;;;;4.35;2.00;;;;;;;-3.11;100.00;99134.00;1696980;82;21071;-67
2022/01/18 11:49:24;;;;;;;5.08;1.92;;;;;;;-3.14;100.00;99138.53;1692365;83;21836;-66
2022/01/18 11:52:00;;;;;;;3.67;1.87;;;;;;;-3.11;100.00;99141.26;1688645;82;21549;-67
2022/01/18 11:57:27;;;;;;;5.60;1.57;;;;;;;-3.13;100.00;99168.45;1704953;81;21047;-65
2022/01/18 12:00:08;;;;;;;12.68;2.22;;;;;;;-3.15;100.00;99156.26;1713112;81;21040;-65
2022/01/18 12:02:45;;;;;;;5.03;1.55;;;;;;;-3.15;100.00;99154.91;1706236;81;21164;-67
2022/01/18 12:05:21;;;;;;;20.68;4.72;;;;;;;-3.08;100.00;99159.12;1702942;81;21651;-65
2022/01/18 12:07:57;;;;;;;15.40;4.62;;;;;;;-3.06;100.00;99144.06;1710004;81;21013;-67
2022/01/18 12:10:38;;;;;;;8.33;3.10;;;;;;;-3.02;100.00;99159.23;1733456;80;21032;-67
2022/01/18 12:13:11;;;;;;;12.67;4.27;;;;;;;-2.94;100.00;99162.37;1736470;80;21194;-66
2022/01/18 12:15:47;;;;;;;5.08;2.27;;;;;;;-2.96;100.00;99164.48;1726544;81;21104;-67
2022/01/18 12:18:22;;;;;;;7.58;2.87;;;;;;;-2.94;100.00;99180.43;1721829;81;21027;-67
2022/01/18 12:20:52;;;;;;;6.12;2.47;;;;;;;-2.90;100.00;99174.83;1731004;80;21060;-66
2022/01/18 12:23:42;;;;;;;9.15;2.62;;;;;;;-2.91;100.00;99173.73;1725648;80;21032;-66
2022/01/18 12:26:31;;;;;;;10.88;2.15;;;;;;;-2.93;100.00;99173.97;1743477;81;21157;-66
2022/01/18 12:34:48;;;;;;;5.28;2.83;;;;;;;-2.97;100.00;99193.84;1728529;81;21596;-66
2022/01/18 12:37:19;;;;;;;7.60;2.52;;;;;;;-2.89;100.00;99208.02;1706059;81;21014;-67
2022/01/18 12:40:08;;;;;;;5.92;1.98;;;;;;;-2.87;100.00;99219.40;1715215;80;21548;-66
2022/01/18 12:45:18;;;;;;;4.55;1.82;;;;;;;-2.95;100.00;99219.25;1708732;82;21143;-67
2022/01/18 12:47:50;;;;;;;8.43;2.77;;;;;;;-2.96;100.00;99214.90;1699997;81;21158;-64
2022/01/18 12:50:27;;;;;;;6.75;1.98;;;;;;;-2.99;100.00;99221.60;1680030;82;21544;-65
2022/01/18 12:52:59;;;;;;;5.20;1.87;;;;;;;-2.96;100.00;99231.91;1718989;80;21012;-66
2022/01/18 12:55:54;;;;;;;6.08;2.42;;;;;;;-2.94;100.00;99238.41;1675168;83;21228;-67
2022/01/18 12:58:38;;;;;;;5.62;1.87;;;;;;;-2.95;100.00;99238.93;1697821;82;21013;-67
2022/01/18 13:01:17;;;;;;;2.77;1.57;;;;;;;-2.95;100.00;99244.88;1692456;82;21056;-67
2022/01/18 13:03:48;;;;;;;8.28;2.45;;;;;;;-2.97;100.00;99263.16;1727500;81;21525;-65
2022/01/18 13:06:19;;;;;;;5.80;2.42;;;;;;;-2.97;100.00;99256.42;1727223;81;20997;-66
2022/01/18 13:08:56;;;;;;;6.72;2.40;;;;;;;-2.95;100.00;99271.29;1730023;81;21150;-66
2022/01/18 13:11:27;;;;;;;10.85;3.50;;;;;;;-2.97;100.00;99269.35;1738112;80;21098;-64
2022/01/18 13:14:07;;;;;;;6.95;2.95;;;;;;;-3.01;100.00;99269.55;1704053;80;21096;-66
2022/01/18 13:27:28;;;;;;;12.60;4.33;;;;;;;-2.92;100.00;99278.63;1726111;81;21006;-66
2022/01/18 13:30:17;;;;;;;17.17;2.85;;;;;;;-2.88;100.00;99278.45;1701332;81;21091;-65
2022/01/18 13:32:43;;;;;;;6.95;2.98;;;;;;;-2.77;100.00;99301.89;1713554;81;21049;-65